createdAt,value
2018-08-24T00:00:20.568Z,35.07
2018-08-24T00:02:47.539Z,27.87
2018-08-24T00:05:14.636Z,31.60
2018-08-24T00:07:41.736Z,30.40
2018-08-24T00:10:09.096Z,29.17
2018-08-24T00:12:36.152Z,29.13
2018-08-24T00:15:03.175Z,29.37
2018-08-24T00:17:30.875Z,37.17
2018-08-24T00:19:58.260Z,29.00
2018-08-24T00:22:25.239Z,41.90
2018-08-24T00:24:52.707Z,31.80
2018-08-24T00:27:19.831Z,38.90
2018-08-24T00:29:46.799Z,32.33
2018-08-24T00:32:13.769Z,34.63
2018-08-24T00:34:40.792Z,32.53
2018-08-24T00:37:07.780Z,31.93
2018-08-24T00:39:34.792Z,31.20
2018-08-24T00:42:02.070Z,28.90
2018-08-24T00:44:29.129Z,32.00
2018-08-24T00:46:56.191Z,37.70
2018-08-24T00:49:23.636Z,34.80
2018-08-24T00:51:50.677Z,33.73
2018-08-24T00:54:17.676Z,34.90
2018-08-24T00:56:44.695Z,33.83
2018-08-24T00:59:11.720Z,41.27
2018-08-24T01:01:38.710Z,32.80
2018-08-24T01:04:05.729Z,31.30
2018-08-24T01:06:33.224Z,32.47
2018-08-24T01:09:00.195Z,33.27
2018-08-24T01:11:33.154Z,33.20
2018-08-24T01:14:00.231Z,30.73
2018-08-24T01:16:32.917Z,35.50
2018-08-24T01:18:59.916Z,33.80
2018-08-24T01:21:26.903Z,33.80
2018-08-24T01:23:53.927Z,32.00
2018-08-24T01:26:21.147Z,35.70
2018-08-24T01:28:48.223Z,30.50
2018-08-24T01:31:15.575Z,29.87
2018-08-24T01:33:42.544Z,30.83
2018-08-24T01:36:09.539Z,32.70
2018-08-24T01:38:36.579Z,36.57
2018-08-24T01:41:03.651Z,33.07
2018-08-24T01:43:30.711Z,33.10
2018-08-24T01:46:03.532Z,36.20
2018-08-24T01:48:30.492Z,34.23
2018-08-24T01:50:57.484Z,34.53
2018-08-24T01:53:24.843Z,33.47
2018-08-24T01:55:51.816Z,30.33
2018-08-24T01:58:18.817Z,34.00
2018-08-24T02:00:45.820Z,35.50
2018-08-24T02:03:12.792Z,35.67
2018-08-24T02:05:40.075Z,32.60
2018-08-24T02:08:07.156Z,35.10
2018-08-24T02:10:34.140Z,35.20
2018-08-24T02:13:06.818Z,34.10
2018-08-24T02:15:33.975Z,40.10
2018-08-24T02:18:06.683Z,31.50
2018-08-24T02:20:39.432Z,42.03
2018-08-24T02:23:12.851Z,38.07
2018-08-24T02:25:40.516Z,31.87
2018-08-24T02:28:07.668Z,29.43
2018-08-24T02:30:34.701Z,31.00
2018-08-24T02:33:01.968Z,8.97
2018-08-24T02:35:29.057Z,7.63
2018-08-24T02:37:56.030Z,6.37
2018-08-24T02:40:23.004Z,3.50
2018-08-24T02:42:49.985Z,6.33
2018-08-24T02:45:16.980Z,5.30
2018-08-24T02:47:44.077Z,5.10
2018-08-24T02:50:11.080Z,6.90
2018-08-24T02:52:38.165Z,7.83
2018-08-24T02:55:05.256Z,12.63
2018-08-24T02:57:32.338Z,5.97
2018-08-24T02:59:59.443Z,8.13
2018-08-24T03:02:27.979Z,5.43
2018-08-24T03:04:55.067Z,9.60
2018-08-24T03:07:22.263Z,5.27
2018-08-24T03:09:49.284Z,7.40
2018-08-24T03:12:16.667Z,5.50
2018-08-24T03:14:43.656Z,5.20
2018-08-24T03:17:16.530Z,4.00
2018-08-24T03:19:43.511Z,4.80
2018-08-24T03:22:10.660Z,7.13
2018-08-24T03:24:38.160Z,4.30
2018-08-24T03:27:05.299Z,4.97
2018-08-24T03:29:32.372Z,3.47
2018-08-24T03:31:59.368Z,4.57
2018-08-24T03:34:26.355Z,3.73
2018-08-24T03:36:53.350Z,5.83
2018-08-24T03:39:20.379Z,4.20
2018-08-24T03:41:47.353Z,5.27
2018-08-24T03:44:14.364Z,3.63
2018-08-24T03:46:42.137Z,3.77
2018-08-24T03:49:09.115Z,7.70
2018-08-24T03:51:36.123Z,4.60
2018-08-24T03:54:07.772Z,5.33
2018-08-24T03:56:34.829Z,6.60
2018-08-24T03:59:01.882Z,7.57
2018-08-24T04:01:28.889Z,6.07
2018-08-24T04:03:55.892Z,8.97
2018-08-24T04:06:22.897Z,8.77
2018-08-24T04:08:49.951Z,8.30
2018-08-24T04:11:17.035Z,8.43
2018-08-24T04:13:44.028Z,13.67
2018-08-24T04:16:11.011Z,15.77
2018-08-24T04:18:38.004Z,10.30
2018-08-24T04:21:05.016Z,11.53
2018-08-24T04:23:31.992Z,16.63
2018-08-24T04:25:59.116Z,11.53
2018-08-24T04:28:26.020Z,6.23
2018-08-24T04:30:53.008Z,12.90
2018-08-24T04:33:20.303Z,6.03
2018-08-24T04:35:47.291Z,10.87
2018-08-24T04:38:14.351Z,11.03
2018-08-24T04:40:41.635Z,12.10
2018-08-24T04:43:08.624Z,10.73
2018-08-24T04:45:35.640Z,10.80
2018-08-24T04:48:03.290Z,9.33
2018-08-24T04:50:30.296Z,10.27
2018-08-24T04:52:57.293Z,11.87
2018-08-24T04:55:24.538Z,13.43
2018-08-24T04:57:51.516Z,10.17
2018-08-24T05:00:18.616Z,11.97
2018-08-24T05:02:45.637Z,9.47
2018-08-24T05:05:12.655Z,10.73
2018-08-24T05:07:39.723Z,11.40
2018-08-24T05:10:06.788Z,8.20
2018-08-24T05:12:33.893Z,15.70
2018-08-24T05:15:01.101Z,13.50
2018-08-24T05:17:28.678Z,7.33
2018-08-24T05:19:56.021Z,9.03
2018-08-24T05:22:23.019Z,8.97
2018-08-24T05:24:50.144Z,8.17
2018-08-24T05:27:17.038Z,8.37
2018-08-24T05:29:44.028Z,10.90
2018-08-24T05:32:11.015Z,8.33
2018-08-24T05:34:38.025Z,14.73
2018-08-24T05:37:05.015Z,16.70
2018-08-24T05:39:32.008Z,8.87
2018-08-24T05:41:59.447Z,16.00
2018-08-24T05:44:26.672Z,6.33
2018-08-24T05:46:53.662Z,9.30
2018-08-24T05:49:21.657Z,5.93
2018-08-24T05:51:48.739Z,6.37
2018-08-24T05:54:15.898Z,5.20
2018-08-24T05:56:43.159Z,6.97
2018-08-24T05:59:10.141Z,9.83
2018-08-24T06:01:37.155Z,9.77
2018-08-24T06:04:04.223Z,5.93
2018-08-24T06:06:31.567Z,9.80
2018-08-24T06:09:04.413Z,13.53
2018-08-24T06:11:31.532Z,11.33
2018-08-24T06:13:58.849Z,9.37
2018-08-24T06:16:25.851Z,5.27
2018-08-24T06:18:52.841Z,6.60
2018-08-24T06:21:19.860Z,7.43
2018-08-24T06:23:46.859Z,7.37
2018-08-24T06:26:13.841Z,6.40
2018-08-24T06:28:41.027Z,6.80
2018-08-24T06:31:08.379Z,7.10
2018-08-24T06:33:35.493Z,10.27
2018-08-24T06:36:02.492Z,7.33
2018-08-24T06:38:29.484Z,6.23
2018-08-24T06:40:56.571Z,4.07
2018-08-24T06:43:23.631Z,8.90
2018-08-24T06:45:50.617Z,7.70
2018-08-24T06:48:18.299Z,6.73
2018-08-24T06:50:45.423Z,11.17
2018-08-24T06:53:12.511Z,9.27
2018-08-24T06:55:39.484Z,14.50
2018-08-24T06:58:06.481Z,12.47
2018-08-24T07:00:33.478Z,11.07
2018-08-24T07:03:01.756Z,9.10
2018-08-24T07:05:29.092Z,9.20
2018-08-24T07:07:56.072Z,6.87
2018-08-24T07:10:23.520Z,11.17
2018-08-24T07:12:51.135Z,12.03
2018-08-24T07:15:18.167Z,10.83
2018-08-24T07:17:50.939Z,16.53
2018-08-24T07:20:18.019Z,11.33
2018-08-24T07:22:45.000Z,12.60
2018-08-24T07:25:12.028Z,8.30
2018-08-24T07:27:39.089Z,13.50
2018-08-24T07:30:06.116Z,11.13
2018-08-24T07:32:33.178Z,13.33
2018-08-24T07:35:00.242Z,19.13
2018-08-24T07:37:27.240Z,7.50
2018-08-24T07:39:54.228Z,10.40
2018-08-24T07:42:21.198Z,10.10
2018-08-24T07:44:51.316Z,13.17
2018-08-24T07:47:18.921Z,10.23
2018-08-24T07:49:45.977Z,13.73
2018-08-24T07:52:12.968Z,11.70
2018-08-24T07:54:39.976Z,14.80
2018-08-24T07:57:07.145Z,15.03
2018-08-24T07:59:34.065Z,13.73
2018-08-24T08:02:01.470Z,13.43
2018-08-24T08:04:29.812Z,11.20
2018-08-24T08:06:56.805Z,11.90
2018-08-24T08:09:23.905Z,10.67
2018-08-24T08:11:50.903Z,12.40
2018-08-24T08:14:17.915Z,13.30
2018-08-24T08:16:44.919Z,17.00
2018-08-24T08:19:11.994Z,27.63
2018-08-24T08:21:39.092Z,33.17
2018-08-24T08:24:06.144Z,16.93
2018-08-24T08:26:33.172Z,21.20
2018-08-24T08:29:00.148Z,12.40
2018-08-24T08:31:27.245Z,18.27
2018-08-24T08:33:54.257Z,12.37
2018-08-24T08:36:21.248Z,20.20
2018-08-24T08:38:48.366Z,14.33
2018-08-24T08:41:15.363Z,13.30
2018-08-24T08:43:42.364Z,11.47
2018-08-24T08:46:09.445Z,7.90
2018-08-24T08:48:36.428Z,11.53
2018-08-24T08:51:03.432Z,13.33
2018-08-24T08:53:30.557Z,13.53
2018-08-24T08:55:57.456Z,10.00
2018-08-24T08:58:24.501Z,11.50
2018-08-24T09:00:51.516Z,11.77
2018-08-24T09:03:18.597Z,10.30
2018-08-24T09:05:45.943Z,13.03
2018-08-24T09:08:13.352Z,9.37
2018-08-24T09:10:40.393Z,12.73
2018-08-24T09:13:07.416Z,20.60
2018-08-24T09:15:34.432Z,8.60
2018-08-24T09:18:07.050Z,10.03
2018-08-24T09:20:40.100Z,11.17
2018-08-24T09:23:13.216Z,10.80
2018-08-24T09:25:45.898Z,12.20
2018-08-24T09:28:22.826Z,9.77
2018-08-24T09:30:53.448Z,12.43
2018-08-24T09:33:20.533Z,14.03
2018-08-24T09:35:47.851Z,19.70
2018-08-24T09:38:15.116Z,13.57
2018-08-24T09:40:47.786Z,14.50
2018-08-24T09:43:20.883Z,9.37
2018-08-24T09:45:47.915Z,8.80
2018-08-24T09:48:21.035Z,18.60
2018-08-24T09:50:54.550Z,12.20
2018-08-24T09:53:27.504Z,12.40
2018-08-24T09:55:54.682Z,15.87
2018-08-24T09:58:21.734Z,11.77
2018-08-24T10:00:54.735Z,15.60
2018-08-24T10:03:27.464Z,16.80
2018-08-24T10:06:00.351Z,18.73
2018-08-24T10:08:34.162Z,22.97
2018-08-24T10:11:03.835Z,28.37
2018-08-24T10:13:30.947Z,18.20
2018-08-24T10:15:57.951Z,18.20
2018-08-24T10:18:24.931Z,11.80
2018-08-24T10:20:51.939Z,14.57
2018-08-24T10:23:18.920Z,6.83
2018-08-24T10:25:45.912Z,7.87
2018-08-24T10:28:13.251Z,10.50
2018-08-24T10:30:40.288Z,7.73
2018-08-24T10:33:07.276Z,12.30
2018-08-24T10:35:34.285Z,8.63
2018-08-24T10:38:01.300Z,7.93
2018-08-24T10:40:28.319Z,11.50
2018-08-24T10:42:55.403Z,6.80
2018-08-24T10:45:22.467Z,6.10
2018-08-24T10:47:49.496Z,5.50
2018-08-24T10:50:16.511Z,16.70
2018-08-24T10:52:43.496Z,8.10
2018-08-24T10:55:10.503Z,4.53
2018-08-24T10:57:37.738Z,9.00
2018-08-24T11:00:05.155Z,10.00
2018-08-24T11:02:32.135Z,4.57
2018-08-24T11:04:59.316Z,4.57
2018-08-24T11:07:26.385Z,6.73
2018-08-24T11:09:53.317Z,8.40
2018-08-24T11:12:20.328Z,8.67
2018-08-24T11:14:47.364Z,9.13
2018-08-24T11:17:14.361Z,6.47
2018-08-24T11:19:41.467Z,4.37
2018-08-24T11:22:08.472Z,5.87
2018-08-24T11:24:35.560Z,6.97
2018-08-24T11:27:02.655Z,18.63
2018-08-24T11:29:29.672Z,7.30
2018-08-24T11:31:56.747Z,5.43
2018-08-24T11:34:23.849Z,7.63
2018-08-24T11:36:50.853Z,8.17
2018-08-24T11:39:17.902Z,10.57
2018-08-24T11:41:45.056Z,2.53
2018-08-24T11:44:12.036Z,7.23
2018-08-24T11:46:39.037Z,8.50
2018-08-24T11:49:06.315Z,14.70
2018-08-24T11:51:33.336Z,3.37
2018-08-24T11:54:01.082Z,3.10
2018-08-24T11:56:28.473Z,5.43
2018-08-24T11:58:55.515Z,2.70
2018-08-24T12:01:22.480Z,6.03
2018-08-24T12:03:49.491Z,9.70
2018-08-24T12:06:16.504Z,3.70
2018-08-24T12:08:50.649Z,8.57
2018-08-24T12:11:17.696Z,5.57
2018-08-24T12:13:44.717Z,3.87
2018-08-24T12:16:11.830Z,10.10
2018-08-24T12:18:39.142Z,10.30
2018-08-24T12:21:06.663Z,3.00
2018-08-24T12:23:33.671Z,9.53
2018-08-24T12:26:00.661Z,10.93
2018-08-24T12:28:27.852Z,3.80
2018-08-24T12:30:54.911Z,5.03
2018-08-24T12:33:22.072Z,4.60
2018-08-24T12:35:49.056Z,6.17
2018-08-24T12:38:16.033Z,16.30
2018-08-24T12:40:43.725Z,7.37
2018-08-24T12:43:10.807Z,3.77
2018-08-24T12:45:37.815Z,3.57
2018-08-24T12:48:05.430Z,6.13
2018-08-24T12:50:32.492Z,3.60
2018-08-24T12:52:59.472Z,6.47
2018-08-24T12:55:26.559Z,2.77
2018-08-24T12:57:53.521Z,2.40
2018-08-24T13:00:20.509Z,8.27
2018-08-24T13:02:47.535Z,7.40
2018-08-24T13:05:14.611Z,9.63
2018-08-24T13:07:41.671Z,7.57
2018-08-24T13:10:08.695Z,5.20
2018-08-24T13:12:35.672Z,4.00
2018-08-24T13:15:03.743Z,6.83
2018-08-24T13:17:30.812Z,3.10
2018-08-24T13:19:57.783Z,7.30
2018-08-24T13:22:24.867Z,3.33
2018-08-24T13:24:51.958Z,9.00
2018-08-24T13:27:19.007Z,1.63
2018-08-24T13:29:46.152Z,3.93
2018-08-24T13:32:13.762Z,3.23
2018-08-24T13:34:40.908Z,4.40
2018-08-24T13:37:08.183Z,6.40
2018-08-24T13:39:35.232Z,4.70
2018-08-24T13:42:03.072Z,2.27
2018-08-24T13:44:30.339Z,1.70
2018-08-24T13:46:57.655Z,2.83
2018-08-24T13:49:24.642Z,5.53
2018-08-24T13:51:51.654Z,6.50
2018-08-24T13:54:18.968Z,3.53
2018-08-24T13:56:46.063Z,2.33
2018-08-24T13:59:13.065Z,5.03
2018-08-24T14:01:40.198Z,2.20
2018-08-24T14:04:07.834Z,2.43
2018-08-24T14:06:35.096Z,3.40
2018-08-24T14:09:02.765Z,7.03
2018-08-24T14:11:29.772Z,15.33
2018-08-24T14:13:59.252Z,9.20
2018-08-24T14:16:26.348Z,4.33
2018-08-24T14:18:53.402Z,10.33
2018-08-24T14:21:20.470Z,6.93
2018-08-24T14:23:48.142Z,3.60
2018-08-24T14:26:15.150Z,6.83
2018-08-24T14:28:42.407Z,3.77
2018-08-24T14:31:09.473Z,3.37
2018-08-24T14:33:36.984Z,3.73
2018-08-24T14:36:04.003Z,4.10
2018-08-24T14:38:31.100Z,2.80
2018-08-24T14:40:58.095Z,5.93
2018-08-24T14:43:25.210Z,2.70
2018-08-24T14:45:52.196Z,1.53
2018-08-24T14:48:19.408Z,3.93
2018-08-24T14:50:46.439Z,1.80
2018-08-24T14:53:13.450Z,5.70
2018-08-24T14:55:40.520Z,4.17
2018-08-24T14:58:07.551Z,4.80
2018-08-24T15:00:34.576Z,7.10
2018-08-24T15:03:01.589Z,5.97
2018-08-24T15:05:28.580Z,3.33
2018-08-24T15:07:55.640Z,2.23
2018-08-24T15:10:22.644Z,3.77
2018-08-24T15:12:49.647Z,3.30
2018-08-24T15:15:16.747Z,2.27
2018-08-24T15:17:43.744Z,2.23
2018-08-24T15:20:10.826Z,4.40
2018-08-24T15:22:37.952Z,2.70
2018-08-24T15:25:04.967Z,4.27
2018-08-24T15:27:31.971Z,3.13
2018-08-24T15:29:59.040Z,7.23
2018-08-24T15:32:25.966Z,6.20
2018-08-24T15:34:53.391Z,6.73
2018-08-24T15:37:20.653Z,5.60
2018-08-24T15:39:47.667Z,5.67
2018-08-24T15:42:14.879Z,4.47
2018-08-24T15:44:42.088Z,2.87
2018-08-24T15:47:09.339Z,4.87
2018-08-24T15:49:36.415Z,3.77
2018-08-24T15:52:03.431Z,3.33
2018-08-24T15:54:30.679Z,5.80
2018-08-24T15:56:57.644Z,2.00
2018-08-24T15:59:24.843Z,6.83
2018-08-24T16:01:51.876Z,5.27
2018-08-24T16:04:19.285Z,2.70
2018-08-24T16:06:46.323Z,4.23
2018-08-24T16:09:13.647Z,6.30
2018-08-24T16:11:40.675Z,8.70
2018-08-24T16:14:09.007Z,8.30
2018-08-24T16:16:36.079Z,10.27
2018-08-24T16:19:03.083Z,3.17
2018-08-24T16:21:30.241Z,3.83
2018-08-24T16:23:57.304Z,3.73
2018-08-24T16:26:25.192Z,11.53
2018-08-24T16:28:52.540Z,5.93
2018-08-24T16:31:19.683Z,6.90
2018-08-24T16:33:46.698Z,4.93
2018-08-24T16:36:14.610Z,4.63
2018-08-24T16:38:42.659Z,3.07
2018-08-24T16:41:09.781Z,2.60
2018-08-24T16:43:36.759Z,2.43
2018-08-24T16:46:03.757Z,2.33
2018-08-24T16:48:30.739Z,2.20
2018-08-24T16:50:57.747Z,3.13
2018-08-24T16:53:24.765Z,7.20
2018-08-24T16:55:52.449Z,41.27
2018-08-24T16:58:19.494Z,5.73
2018-08-24T17:00:46.498Z,66.30
2018-08-24T17:03:13.521Z,29.90
2018-08-24T17:05:40.707Z,1.80
2018-08-24T17:08:07.713Z,18.43
2018-08-24T17:10:34.844Z,26.83
2018-08-24T17:13:01.995Z,45.00
2018-08-24T17:15:29.069Z,3.60
2018-08-24T17:17:56.312Z,29.83
2018-08-24T17:20:23.292Z,4.73
2018-08-24T17:22:50.296Z,3.63
2018-08-24T17:25:17.318Z,1.67
2018-08-24T17:27:44.307Z,9.47
2018-08-24T17:30:11.340Z,5.53
2018-08-24T17:32:38.452Z,6.70
2018-08-24T17:35:06.029Z,2.60
2018-08-24T17:37:33.039Z,3.53
2018-08-24T17:40:00.031Z,6.53
2018-08-24T17:42:27.036Z,16.87
2018-08-24T17:44:54.105Z,10.77
2018-08-24T17:47:21.110Z,5.63
2018-08-24T17:49:48.125Z,17.30
2018-08-24T17:52:15.605Z,3.67
2018-08-24T17:54:42.615Z,4.40
2018-08-24T17:57:09.704Z,2.10
2018-08-24T17:59:36.727Z,9.80
2018-08-24T18:02:04.741Z,67.50
2018-08-24T18:04:31.730Z,24.37
2018-08-24T18:06:58.710Z,3.10
2018-08-24T18:09:25.974Z,8.00
2018-08-24T18:11:52.991Z,5.70
2018-08-24T18:14:20.648Z,1.23
2018-08-24T18:16:47.720Z,5.77
2018-08-24T18:19:14.731Z,2.03
2018-08-24T18:21:42.220Z,3.10
2018-08-24T18:24:10.304Z,1.17
2018-08-24T18:26:37.576Z,3.50
2018-08-24T18:29:05.295Z,10.57
2018-08-24T18:31:32.765Z,15.83
2018-08-24T18:34:00.127Z,8.50
2018-08-24T18:36:27.353Z,6.93
2018-08-24T18:38:54.650Z,4.03
2018-08-24T18:41:21.817Z,1.70
2018-08-24T18:43:48.847Z,2.07
2018-08-24T18:46:16.114Z,2.27
2018-08-24T18:48:43.250Z,47.53
2018-08-24T18:51:10.696Z,2.03
2018-08-24T18:53:37.933Z,9.03
2018-08-24T18:56:05.488Z,2.80
2018-08-24T18:58:32.498Z,2.03
2018-08-24T19:00:59.511Z,3.70
2018-08-24T19:03:26.820Z,6.23
2018-08-24T19:05:54.033Z,5.23
2018-08-24T19:08:21.004Z,1.80
2018-08-24T19:10:54.091Z,5.10
2018-08-24T19:13:21.143Z,2.13
2018-08-24T19:15:48.178Z,3.00
2018-08-24T19:18:21.274Z,3.60
2018-08-24T19:20:54.105Z,3.60
2018-08-24T19:23:21.168Z,4.30
2018-08-24T19:25:48.430Z,5.20
2018-08-24T19:28:21.292Z,27.40
2018-08-24T19:30:48.604Z,2.00
2018-08-24T19:33:15.591Z,6.87
2018-08-24T19:35:42.691Z,4.53
2018-08-24T19:38:09.813Z,5.07
2018-08-24T19:40:42.389Z,6.83
2018-08-24T19:43:09.804Z,7.93
2018-08-24T19:45:36.872Z,4.50
2018-08-24T19:48:10.742Z,5.77
2018-08-24T19:50:37.778Z,6.10
2018-08-24T19:53:05.085Z,2.77
2018-08-24T19:55:32.274Z,2.83
2018-08-24T19:58:05.663Z,4.17
2018-08-24T20:00:33.077Z,5.30
2018-08-24T20:03:00.065Z,4.77
2018-08-24T20:05:27.389Z,8.43
2018-08-24T20:08:00.486Z,4.27
2018-08-24T20:10:28.583Z,11.33
2018-08-24T20:12:55.889Z,3.97
2018-08-24T20:15:28.603Z,7.67
2018-08-24T20:17:55.615Z,5.03
2018-08-24T20:20:22.620Z,15.67
2018-08-24T20:22:49.599Z,7.13
2018-08-24T20:25:16.613Z,10.40
2018-08-24T20:27:43.621Z,7.97
2018-08-24T20:30:10.612Z,3.53
2018-08-24T20:32:37.801Z,4.30
2018-08-24T20:35:04.791Z,7.27
2018-08-24T20:37:32.309Z,4.80
2018-08-24T20:39:59.685Z,9.97
2018-08-24T20:42:26.714Z,5.30
2018-08-24T20:44:53.703Z,8.83
2018-08-24T20:47:20.856Z,7.90
2018-08-24T20:49:47.820Z,6.93
2018-08-24T20:52:14.933Z,5.73
2018-08-24T20:54:41.921Z,8.63
2018-08-24T20:57:08.921Z,5.03
2018-08-24T20:59:35.912Z,2.53
2018-08-24T21:02:03.220Z,2.73
2018-08-24T21:04:30.308Z,5.33
2018-08-24T21:06:57.314Z,9.07
2018-08-24T21:09:24.310Z,3.20
2018-08-24T21:11:52.143Z,4.10
2018-08-24T21:14:19.191Z,8.77
2018-08-24T21:16:46.262Z,6.27
2018-08-24T21:19:13.204Z,3.63
2018-08-24T21:21:40.179Z,2.50
2018-08-24T21:24:09.234Z,5.70
2018-08-24T21:26:36.578Z,7.10
2018-08-24T21:29:03.851Z,8.60
2018-08-24T21:31:30.863Z,2.47
2018-08-24T21:33:58.550Z,5.70
2018-08-24T21:36:27.799Z,6.27
2018-08-24T21:38:56.785Z,4.50
2018-08-24T21:41:25.728Z,3.53
2018-08-24T21:43:54.922Z,2.50
2018-08-24T21:46:25.209Z,10.00
2018-08-24T21:48:54.319Z,3.87
2018-08-24T21:51:21.380Z,3.00
2018-08-24T21:53:48.560Z,1.77
2018-08-24T21:56:15.579Z,4.67
2018-08-24T21:58:42.576Z,3.30
2018-08-24T22:01:09.799Z,3.90
2018-08-24T22:03:36.876Z,6.97
2018-08-24T22:06:04.128Z,3.37
2018-08-24T22:08:31.480Z,9.53
2018-08-24T22:10:58.583Z,2.20
2018-08-24T22:13:25.651Z,4.27
2018-08-24T22:15:52.884Z,3.00
2018-08-24T22:18:19.943Z,8.80
2018-08-24T22:20:46.920Z,8.63
2018-08-24T22:23:14.363Z,5.37
2018-08-24T22:25:41.419Z,5.70
2018-08-24T22:28:08.431Z,2.60
2018-08-24T22:30:35.421Z,1.87
2018-08-24T22:33:02.755Z,5.00
2018-08-24T22:35:29.864Z,3.50
2018-08-24T22:37:56.832Z,2.87
2018-08-24T22:40:23.859Z,4.37
2018-08-24T22:42:51.147Z,6.10
2018-08-24T22:45:18.207Z,3.23
2018-08-24T22:47:45.281Z,3.80
2018-08-24T22:50:12.269Z,3.50
2018-08-24T22:52:39.943Z,5.50
2018-08-24T22:55:07.627Z,4.40
2018-08-24T22:57:34.694Z,7.63
2018-08-24T23:00:01.776Z,4.60
2018-08-24T23:02:28.775Z,5.87
2018-08-24T23:04:55.773Z,4.83
2018-08-24T23:07:23.012Z,4.23
2018-08-24T23:09:50.199Z,2.70
2018-08-24T23:12:17.228Z,6.43
2018-08-24T23:14:44.307Z,2.50
2018-08-24T23:17:11.412Z,5.00
2018-08-24T23:19:38.410Z,6.03
2018-08-24T23:22:05.408Z,2.80
2018-08-24T23:24:32.566Z,4.17
2018-08-24T23:26:59.708Z,3.30
2018-08-24T23:29:26.872Z,4.17
2018-08-24T23:31:53.876Z,3.20
2018-08-24T23:34:20.841Z,3.60
2018-08-24T23:36:47.849Z,3.53
2018-08-24T23:39:14.995Z,4.13
2018-08-24T23:41:42.052Z,4.10
2018-08-24T23:44:09.311Z,8.87
2018-08-24T23:46:36.673Z,6.57
2018-08-24T23:49:03.991Z,3.03
2018-08-24T23:51:30.986Z,3.10
2018-08-24T23:53:58.046Z,4.57
2018-08-24T23:56:25.383Z,7.43
2018-08-24T23:58:52.387Z,6.40
